Aviation Digital Data Service (ADDS)

Output produced by METARs form (2012 UTC 23 January 2019)
found at http://www.aviationweather.gov/metar/data/
 
METAR text: FNHU 231600Z 13005KT 9999 SCT014 28/16 Q1018
Conditions at: FNHU (HUAMBO/NOVA LISB, AO) observed 1600 UTC 23 January 2019
Temperature: 28.0°C (82°F)
Dewpoint: 16.0°C (61°F) [RH = 48%]
Pressure (altimeter): 30.06 inches Hg (1018.0 mb)
Winds: from the SE (130 degrees) at 6 MPH (5 knots; 2.6 m/s)
Visibility: 6 or more miles (10+ km)
Ceiling: at least 12,000 feet AGL
Clouds: scattered clouds at 1400 feet AGL
Weather: no significant weather observed at this time

METAR text: FNHU 231500Z 13010KT 9999 SCT015 27/15 Q1017
Conditions at: FNHU (HUAMBO/NOVA LISB, AO) observed 1500 UTC 23 January 2019
Temperature: 27.0°C (81°F)
Dewpoint: 15.0°C (59°F) [RH = 48%]
Pressure (altimeter): 30.03 inches Hg (1017.0 mb)
Winds: from the SE (130 degrees) at 12 MPH (10 knots; 5.1 m/s)
Visibility: 6 or more miles (10+ km)
Ceiling: at least 12,000 feet AGL
Clouds: scattered clouds at 1500 feet AGL
Weather: no significant weather observed at this time

METAR text: FNHU 231400Z 19004KT 9999 SCT015 28/14 Q1018
Conditions at: FNHU (HUAMBO/NOVA LISB, AO) observed 1400 UTC 23 January 2019
Temperature: 28.0°C (82°F)
Dewpoint: 14.0°C (57°F) [RH = 42%]
Pressure (altimeter): 30.06 inches Hg (1018.0 mb)
Winds: from the S (190 degrees) at 5 MPH (4 knots; 2.1 m/s)
Visibility: 6 or more miles (10+ km)
Ceiling: at least 12,000 feet AGL
Clouds: scattered clouds at 1500 feet AGL
Weather: no significant weather observed at this time

METAR text: FNHU 231300Z 19008KT 9999 SCT014 28/16 Q1019
Conditions at: FNHU (HUAMBO/NOVA LISB, AO) observed 1300 UTC 23 January 2019
Temperature: 28.0°C (82°F)
Dewpoint: 16.0°C (61°F) [RH = 48%]
Pressure (altimeter): 30.09 inches Hg (1019.0 mb)
Winds: from the S (190 degrees) at 9 MPH (8 knots; 4.1 m/s)
Visibility: 6 or more miles (10+ km)
Ceiling: at least 12,000 feet AGL
Clouds: scattered clouds at 1400 feet AGL
Weather: no significant weather observed at this time

METAR text: FNHU 231200Z 09004KT 9999 SCT013 27/18 Q1020
Conditions at: FNHU (HUAMBO/NOVA LISB, AO) observed 1200 UTC 23 January 2019
Temperature: 27.0°C (81°F)
Dewpoint: 18.0°C (64°F) [RH = 58%]
Pressure (altimeter): 30.12 inches Hg (1020.0 mb)
Winds: from the E (90 degrees) at 5 MPH (4 knots; 2.1 m/s)
Visibility: 6 or more miles (10+ km)
Ceiling: at least 12,000 feet AGL
Clouds: scattered clouds at 1300 feet AGL
Weather: no significant weather observed at this time

METAR text: FNHU 231100Z VRB02KT 9999 SCT012 25/17 Q1021
Conditions at: FNHU (HUAMBO/NOVA LISB, AO) observed 1100 UTC 23 January 2019
Temperature: 25.0°C (77°F)
Dewpoint: 17.0°C (63°F) [RH = 61%]
Pressure (altimeter): 30.15 inches Hg (1021.0 mb)
Winds: variable direction winds at 2 MPH (2 knots; 1.0 m/s)
Visibility: 6 or more miles (10+ km)
Ceiling: at least 12,000 feet AGL
Clouds: scattered clouds at 1200 feet AGL
Weather: no significant weather observed at this time

METAR text: FNHU 231000Z 24004KT 9999 SCT011 23/18 Q1022
Conditions at: FNHU (HUAMBO/NOVA LISB, AO) observed 1000 UTC 23 January 2019
Temperature: 23.0°C (73°F)
Dewpoint: 18.0°C (64°F) [RH = 73%]
Pressure (altimeter): 30.18 inches Hg (1022.0 mb)
Winds: from the WSW (240 degrees) at 5 MPH (4 knots; 2.1 m/s)
Visibility: 6 or more miles (10+ km)
Ceiling: at least 12,000 feet AGL
Clouds: scattered clouds at 1100 feet AGL
Weather: no significant weather observed at this time

METAR text: FNHU 230900Z 24006KT 9999 SCT016 24/19 Q1022
Conditions at: FNHU (HUAMBO/NOVA LISB, AO) observed 0900 UTC 23 January 2019
Temperature: 24.0°C (75°F)
Dewpoint: 19.0°C (66°F) [RH = 74%]
Pressure (altimeter): 30.18 inches Hg (1022.0 mb)
Winds: from the WSW (240 degrees) at 7 MPH (6 knots; 3.1 m/s)
Visibility: 6 or more miles (10+ km)
Ceiling: at least 12,000 feet AGL
Clouds: scattered clouds at 1600 feet AGL
Weather: no significant weather observed at this time

METAR text: FNHU 230800Z 22005KT 9999 SCT009 BKN070 21/18 Q1023
Conditions at: FNHU (HUAMBO/NOVA LISB, AO) observed 0800 UTC 23 January 2019
Temperature: 21.0°C (70°F)
Dewpoint: 18.0°C (64°F) [RH = 83%]
Pressure (altimeter): 30.21 inches Hg (1023.0 mb)
Winds: from the SW (220 degrees) at 6 MPH (5 knots; 2.6 m/s)
Visibility: 6 or more miles (10+ km)
Ceiling: 7000 feet AGL
Clouds: scattered clouds at 900 feet AGL
broken clouds at 7000 feet AGL
Weather: no significant weather observed at this time

METAR text: FNHU 230700Z 19005KT 9999 SCT008 BKN080 19/18 Q1022
Conditions at: FNHU (HUAMBO/NOVA LISB, AO) observed 0700 UTC 23 January 2019
Temperature: 19.0°C (66°F)
Dewpoint: 18.0°C (64°F) [RH = 94%]
Pressure (altimeter): 30.18 inches Hg (1022.0 mb)
Winds: from the S (190 degrees) at 6 MPH (5 knots; 2.6 m/s)
Visibility: 6 or more miles (10+ km)
Ceiling: 8000 feet AGL
Clouds: scattered clouds at 800 feet AGL
broken clouds at 8000 feet AGL
Weather: no significant weather observed at this time

METAR text: FNHU 230600Z 19004KT 5000 BR FEW007 BKN060 17/17 Q1022
Conditions at: FNHU (HUAMBO/NOVA LISB, AO) observed 0600 UTC 23 January 2019
Temperature: 17.0°C (63°F)
Dewpoint: 17.0°C (63°F) [RH = 100%]
Pressure (altimeter): 30.18 inches Hg (1022.0 mb)
Winds: from the S (190 degrees) at 5 MPH (4 knots; 2.1 m/s)
Visibility: 3 miles ( 5 km)
Ceiling: 6000 feet AGL
Clouds: few clouds at 700 feet AGL
broken clouds at 6000 feet AGL
Weather: BR  (mist)

METAR text: FNHU 230500Z VRB03KT 5000 BR FEW007 BKN060 16/16 Q1022
Conditions at: FNHU (HUAMBO/NOVA LISB, AO) observed 0500 UTC 23 January 2019
Temperature: 16.0°C (61°F)
Dewpoint: 16.0°C (61°F) [RH = 100%]
Pressure (altimeter): 30.18 inches Hg (1022.0 mb)
Winds: variable direction winds at 3 MPH (3 knots; 1.5 m/s)
Visibility: 3 miles ( 5 km)
Ceiling: 6000 feet AGL
Clouds: few clouds at 700 feet AGL
broken clouds at 6000 feet AGL
Weather: BR  (mist)

METAR text: FNHU 221600Z 12006KT 9999 SCT014 BKN070 25/16 Q1018
Conditions at: FNHU (HUAMBO/NOVA LISB, AO) observed 1600 UTC 22 January 2019
Temperature: 25.0°C (77°F)
Dewpoint: 16.0°C (61°F) [RH = 57%]
Pressure (altimeter): 30.06 inches Hg (1018.0 mb)
Winds: from the ESE (120 degrees) at 7 MPH (6 knots; 3.1 m/s)
Visibility: 6 or more miles (10+ km)
Ceiling: 7000 feet AGL
Clouds: scattered clouds at 1400 feet AGL
broken clouds at 7000 feet AGL
Weather: no significant weather observed at this time

METAR text: FNHU 221500Z 12005KT 9999 BKN015 27/14 Q1018
Conditions at: FNHU (HUAMBO/NOVA LISB, AO) observed 1500 UTC 22 January 2019
Temperature: 27.0°C (81°F)
Dewpoint: 14.0°C (57°F) [RH = 45%]
Pressure (altimeter): 30.06 inches Hg (1018.0 mb)
Winds: from the ESE (120 degrees) at 6 MPH (5 knots; 2.6 m/s)
Visibility: 6 or more miles (10+ km)
Ceiling: 1500 feet AGL
Clouds: broken clouds at 1500 feet AGL
Weather: no significant weather observed at this time

METAR text: FNHU 221400Z 10009KT 9999 SCT015 28/15 Q1019
Conditions at: FNHU (HUAMBO/NOVA LISB, AO) observed 1400 UTC 22 January 2019
Temperature: 28.0°C (82°F)
Dewpoint: 15.0°C (59°F) [RH = 45%]
Pressure (altimeter): 30.09 inches Hg (1019.0 mb)
Winds: from the E (100 degrees) at 10 MPH (9 knots; 4.6 m/s)
Visibility: 6 or more miles (10+ km)
Ceiling: at least 12,000 feet AGL
Clouds: scattered clouds at 1500 feet AGL
Weather: no significant weather observed at this time

METAR text: FNHU 221300Z 12009KT 9999 SCT014 26/15 Q1020
Conditions at: FNHU (HUAMBO/NOVA LISB, AO) observed 1300 UTC 22 January 2019
Temperature: 26.0°C (79°F)
Dewpoint: 15.0°C (59°F) [RH = 51%]
Pressure (altimeter): 30.12 inches Hg (1020.0 mb)
Winds: from the ESE (120 degrees) at 10 MPH (9 knots; 4.6 m/s)
Visibility: 6 or more miles (10+ km)
Ceiling: at least 12,000 feet AGL
Clouds: scattered clouds at 1400 feet AGL
Weather: no significant weather observed at this time

METAR text: FNHU 221200Z 12011KT 9999 BKN013 26/16 Q1021
Conditions at: FNHU (HUAMBO/NOVA LISB, AO) observed 1200 UTC 22 January 2019
Temperature: 26.0°C (79°F)
Dewpoint: 16.0°C (61°F) [RH = 54%]
Pressure (altimeter): 30.15 inches Hg (1021.0 mb)
Winds: from the ESE (120 degrees) at 13 MPH (11 knots; 5.7 m/s)
Visibility: 6 or more miles (10+ km)
Ceiling: 1300 feet AGL
Clouds: broken clouds at 1300 feet AGL
Weather: no significant weather observed at this time

METAR text: FNHU 221100Z 18008KT 9999 BKN012 25/18 Q1022
Conditions at: FNHU (HUAMBO/NOVA LISB, AO) observed 1100 UTC 22 January 2019
Temperature: 25.0°C (77°F)
Dewpoint: 18.0°C (64°F) [RH = 65%]
Pressure (altimeter): 30.18 inches Hg (1022.0 mb)
Winds: from the S (180 degrees) at 9 MPH (8 knots; 4.1 m/s)
Visibility: 6 or more miles (10+ km)
Ceiling: 1200 feet AGL
Clouds: broken clouds at 1200 feet AGL
Weather: no significant weather observed at this time

METAR text: FNHU 221000Z 14007KT 9999 BKN011 24/17 Q1022
Conditions at: FNHU (HUAMBO/NOVA LISB, AO) observed 1000 UTC 22 January 2019
Temperature: 24.0°C (75°F)
Dewpoint: 17.0°C (63°F) [RH = 65%]
Pressure (altimeter): 30.18 inches Hg (1022.0 mb)
Winds: from the SE (140 degrees) at 8 MPH (7 knots; 3.6 m/s)
Visibility: 6 or more miles (10+ km)
Ceiling: 1100 feet AGL
Clouds: broken clouds at 1100 feet AGL
Weather: no significant weather observed at this time

METAR text: FNHU 220900Z 19005KT 9999 BKN010 23/18 Q1023
Conditions at: FNHU (HUAMBO/NOVA LISB, AO) observed 0900 UTC 22 January 2019
Temperature: 23.0°C (73°F)
Dewpoint: 18.0°C (64°F) [RH = 73%]
Pressure (altimeter): 30.21 inches Hg (1023.0 mb)
Winds: from the S (190 degrees) at 6 MPH (5 knots; 2.6 m/s)
Visibility: 6 or more miles (10+ km)
Ceiling: 1000 feet AGL
Clouds: broken clouds at 1000 feet AGL
Weather: no significant weather observed at this time

Forecast for: FNHU (HUAMBO/NOVA LISB, AO)
Text: TAF FNHU 231050Z 2312/2324 18008KT 9999 SCT016
Forecast period: 1200 to 1800 UTC 23 January 2019
Forecast type: FROM: standard forecast or significant change
Winds: from the S (180 degrees) at 9 MPH (8 knots; 4.1 m/s)
Visibility: 6 or more miles 10+ km)
Ceiling: at least 12,000 feet AGL
Clouds: scattered clouds at 1600 feet AGL
Weather: no significant weather forecast for this period
Text: PROB30
Forecast period: 1400 to 1800 UTC 23 January 2019
Forecast type: TEMPORARY: The following changes expected for less than half the time period
Winds: from the WSW (240 degrees) at 7 MPH (6 knots; 3.1 m/s)
Visibility: 4 miles (6 km)
Ceiling: 2000 feet AGL
Clouds: scattered clouds at 1000 feet AGL
few clouds at 1600 feet AGL
broken clouds at 2000 feet AGL
Weather: -TSRA  (light rain associated with thunderstorm(s))
Text: TEMPO 2314/2318 24006KT 6000 -TSRA SCT010 FEW016CB BKN020
Forecast period: 1800 UTC 23 January 2019 to 0000 UTC 24 January 2019
Forecast type: BECOMING: Conditions expected to become as follows by 2100 UTC 23 January 2019
Winds: variable direction winds at 3 MPH (3 knots; 1.5 m/s)
Visibility: 5 miles (8 km)
Ceiling: 2500 feet AGL
Clouds: scattered clouds at 1200 feet AGL
few clouds at 2000 feet AGL
broken clouds at 2500 feet AGL
Weather: no significant weather forecast for this period